createdAt,value
2022-10-24T00:00:07.669Z,21.70
2022-10-24T00:00:20.267Z,21.70
2022-10-24T00:00:32.712Z,21.80
2022-10-24T00:00:46.766Z,21.70
2022-10-24T00:00:59.921Z,21.70
2022-10-24T00:01:20.324Z,21.80
2022-10-24T00:01:32.148Z,21.70
2022-10-24T00:01:44.133Z,21.70
2022-10-24T00:01:56.377Z,21.70
2022-10-24T00:02:09.857Z,21.70
2022-10-24T00:02:22.266Z,21.70
2022-10-24T00:02:34.733Z,21.70
2022-10-24T00:02:47.803Z,21.70
2022-10-24T00:03:00.479Z,21.70
2022-10-24T00:03:13.346Z,21.60
2022-10-24T00:03:25.862Z,21.60
2022-10-24T00:03:37.892Z,21.70
2022-10-24T00:03:49.935Z,21.60
2022-10-24T00:04:18.905Z,21.70
2022-10-24T00:04:30.872Z,21.60
2022-10-24T00:04:43.081Z,21.60
2022-10-24T00:04:55.613Z,21.60
2022-10-24T00:05:07.986Z,21.60
2022-10-24T00:05:21.019Z,21.60
2022-10-24T00:05:33.982Z,21.60
2022-10-24T00:05:47.474Z,21.60
2022-10-24T00:05:59.298Z,21.60
2022-10-24T00:06:11.662Z,21.60
2022-10-24T00:06:52.329Z,21.60
2022-10-24T00:07:04.803Z,21.60
2022-10-24T00:07:16.798Z,21.60
2022-10-24T00:07:29.299Z,21.60
2022-10-24T00:07:42.214Z,21.60
2022-10-24T00:07:59.484Z,21.60
2022-10-24T00:08:12.145Z,21.50
2022-10-24T00:08:25.640Z,21.50
2022-10-24T00:08:38.237Z,21.50
2022-10-24T00:08:50.549Z,21.50
2022-10-24T00:09:03.754Z,21.50
2022-10-24T00:09:15.668Z,21.50
2022-10-24T00:09:28.505Z,21.50
2022-10-24T00:09:40.569Z,21.50
2022-10-24T00:09:52.724Z,21.50
2022-10-24T00:10:06.464Z,21.50
2022-10-24T00:10:21.567Z,21.50
2022-10-24T00:10:34.268Z,21.50
2022-10-24T00:10:47.856Z,21.50
2022-10-24T00:11:02.112Z,21.50
2022-10-24T00:11:43.720Z,21.50
2022-10-24T00:11:55.845Z,21.50
2022-10-24T00:12:08.511Z,21.50
2022-10-24T00:12:38.842Z,21.40
2022-10-24T00:12:51.448Z,21.40
2022-10-24T00:13:05.499Z,21.50
2022-10-24T00:13:17.389Z,21.40
2022-10-24T00:13:29.775Z,21.40
2022-10-24T00:13:44.151Z,21.40
2022-10-24T00:13:56.705Z,21.40
2022-10-24T00:14:10.220Z,21.40
2022-10-24T00:14:22.984Z,21.40
2022-10-24T00:14:35.540Z,21.40
2022-10-24T00:14:47.453Z,21.40
2022-10-24T00:14:59.637Z,21.40
2022-10-24T00:15:12.828Z,21.40
2022-10-24T00:15:25.340Z,21.40
2022-10-24T00:15:38.136Z,21.40
2022-10-24T00:15:50.306Z,21.40
2022-10-24T00:16:02.555Z,21.40
2022-10-24T00:16:15.190Z,21.40
2022-10-24T00:16:32.654Z,21.40
2022-10-24T00:16:47.992Z,21.40
2022-10-24T00:17:00.166Z,21.30
2022-10-24T00:17:12.160Z,21.40
2022-10-24T00:17:25.899Z,21.30
2022-10-24T00:17:38.259Z,21.30
2022-10-24T00:17:53.384Z,21.30
2022-10-24T00:18:06.315Z,21.30
2022-10-24T00:18:21.517Z,21.30
2022-10-24T00:18:33.888Z,21.30
2022-10-24T00:18:49.086Z,21.30
2022-10-24T00:19:01.027Z,21.30
2022-10-24T00:19:13.348Z,21.30
2022-10-24T00:19:25.314Z,21.30
2022-10-24T00:19:37.367Z,21.30
2022-10-24T00:19:49.513Z,21.30
2022-10-24T00:20:03.623Z,21.30
2022-10-24T00:20:19.503Z,21.30
2022-10-24T00:20:34.175Z,21.30
2022-10-24T00:20:46.583Z,21.30
2022-10-24T00:20:58.498Z,21.30
2022-10-24T00:21:11.689Z,21.30
2022-10-24T00:21:24.325Z,21.30
2022-10-24T00:21:36.590Z,21.30
2022-10-24T00:21:48.576Z,21.30
2022-10-24T00:22:01.379Z,21.30
2022-10-24T00:22:14.008Z,21.30
2022-10-24T00:22:26.225Z,21.30
2022-10-24T00:22:38.909Z,21.30
2022-10-24T00:22:50.804Z,21.30
2022-10-24T00:23:03.536Z,21.30
2022-10-24T00:23:15.340Z,21.30
2022-10-24T00:23:29.806Z,21.30
2022-10-24T00:23:44.701Z,21.20
2022-10-24T00:23:57.679Z,21.30
2022-10-24T00:24:10.266Z,21.30
2022-10-24T00:24:22.766Z,21.30
2022-10-24T00:24:34.785Z,21.30
2022-10-24T00:24:47.860Z,21.30
2022-10-24T00:25:01.105Z,21.30
2022-10-24T00:25:14.006Z,21.20
2022-10-24T00:25:28.052Z,21.20
2022-10-24T00:25:40.217Z,21.20
2022-10-24T00:25:52.922Z,21.20
2022-10-24T00:26:06.828Z,21.20
2022-10-24T00:26:19.588Z,21.20
2022-10-24T00:26:32.221Z,21.20
2022-10-24T00:26:44.272Z,21.20
2022-10-24T00:26:59.311Z,21.20
2022-10-24T00:27:11.295Z,21.20
2022-10-24T00:27:23.925Z,21.20
2022-10-24T00:27:36.628Z,21.20
2022-10-24T00:27:49.533Z,21.20
2022-10-24T00:28:01.655Z,21.20
2022-10-24T00:28:14.540Z,21.20
2022-10-24T00:28:26.269Z,21.20
2022-10-24T00:28:39.997Z,21.20
2022-10-24T00:28:52.377Z,21.20
2022-10-24T00:29:04.882Z,21.20
2022-10-24T00:29:17.942Z,21.20
2022-10-24T00:29:30.268Z,21.20
2022-10-24T00:29:42.150Z,21.20
2022-10-24T00:29:53.970Z,21.20
2022-10-24T00:30:08.328Z,21.20
2022-10-24T00:30:20.356Z,21.20
2022-10-24T00:30:32.695Z,21.20
2022-10-24T00:30:46.068Z,21.20
2022-10-24T00:30:58.204Z,21.20
2022-10-24T00:31:13.883Z,21.20
2022-10-24T00:31:25.606Z,21.20
2022-10-24T00:31:37.757Z,21.20
2022-10-24T00:31:50.343Z,21.20
2022-10-24T00:32:04.091Z,21.20
2022-10-24T00:32:16.308Z,21.20
2022-10-24T00:32:28.983Z,21.20
2022-10-24T00:32:41.605Z,21.20
2022-10-24T00:32:53.953Z,21.20
2022-10-24T00:33:05.905Z,21.20
2022-10-24T00:33:18.852Z,21.20
2022-10-24T00:33:32.299Z,21.20
2022-10-24T00:33:45.011Z,21.20
2022-10-24T00:34:14.317Z,21.20
2022-10-24T00:34:26.525Z,21.20
2022-10-24T00:34:39.682Z,21.20
2022-10-24T00:34:52.452Z,21.10
2022-10-24T00:35:04.964Z,21.20
2022-10-24T00:35:16.810Z,21.20
2022-10-24T00:35:29.247Z,21.20
2022-10-24T00:35:42.482Z,21.10
2022-10-24T00:35:56.190Z,21.10
2022-10-24T00:36:12.961Z,21.10
2022-10-24T00:36:26.543Z,21.10
2022-10-24T00:36:38.538Z,21.10
2022-10-24T00:36:50.272Z,21.10
2022-10-24T00:37:02.362Z,21.10
2022-10-24T00:37:14.650Z,21.20
2022-10-24T00:37:26.778Z,21.10
2022-10-24T00:37:38.773Z,21.10
2022-10-24T00:37:50.593Z,21.10
2022-10-24T00:38:02.955Z,21.10
2022-10-24T00:38:15.323Z,21.10
2022-10-24T00:38:27.205Z,21.10
2022-10-24T00:38:39.181Z,21.10
2022-10-24T00:38:52.710Z,21.10
2022-10-24T00:39:05.054Z,21.10
2022-10-24T00:39:17.198Z,21.20
2022-10-24T00:39:29.330Z,21.10
2022-10-24T00:39:41.186Z,21.20
2022-10-24T00:39:53.101Z,21.20
2022-10-24T00:40:07.503Z,21.20
2022-10-24T00:40:20.102Z,21.20
2022-10-24T00:40:33.383Z,21.20
2022-10-24T00:40:48.534Z,21.10
2022-10-24T00:41:01.433Z,21.10
2022-10-24T00:41:18.184Z,21.10
2022-10-24T00:41:37.990Z,21.10
2022-10-24T00:41:57.605Z,21.10
2022-10-24T00:42:10.492Z,21.10
2022-10-24T00:42:22.565Z,21.10
2022-10-24T00:42:34.528Z,21.10
2022-10-24T00:42:46.742Z,21.10
2022-10-24T00:42:58.418Z,21.10
2022-10-24T00:43:20.286Z,21.10
2022-10-24T00:43:31.985Z,21.10
2022-10-24T00:43:43.714Z,21.20
2022-10-24T00:44:26.198Z,21.10
2022-10-24T00:44:38.922Z,21.10
2022-10-24T00:44:52.853Z,21.10
2022-10-24T00:45:48.867Z,21.10
2022-10-24T00:46:02.089Z,21.10
2022-10-24T00:46:15.516Z,21.10
2022-10-24T00:46:27.712Z,21.10
2022-10-24T00:46:43.937Z,21.10
2022-10-24T00:47:06.336Z,21.10
2022-10-24T00:47:20.155Z,21.10
2022-10-24T00:47:32.788Z,21.10
2022-10-24T00:47:45.016Z,21.10
2022-10-24T00:47:57.019Z,21.10
2022-10-24T00:48:25.426Z,21.10
2022-10-24T00:48:47.679Z,21.10
2022-10-24T00:49:00.096Z,21.10
2022-10-24T00:49:17.787Z,21.00
2022-10-24T00:49:52.660Z,21.10
2022-10-24T00:50:10.670Z,21.10
2022-10-24T00:50:22.774Z,21.10
2022-10-24T00:50:34.688Z,21.10
2022-10-24T00:50:46.583Z,21.10
2022-10-24T00:51:04.169Z,21.10
2022-10-24T00:51:31.005Z,21.10
2022-10-24T00:51:42.786Z,21.10
2022-10-24T00:51:57.775Z,21.10
2022-10-24T00:52:12.990Z,21.10
2022-10-24T00:52:26.690Z,21.10
2022-10-24T00:52:46.011Z,21.10
2022-10-24T00:52:57.773Z,21.10
2022-10-24T00:53:09.854Z,21.10
2022-10-24T00:53:52.400Z,21.10
2022-10-24T00:54:05.559Z,21.10
2022-10-24T00:54:17.655Z,21.10
2022-10-24T00:54:30.186Z,21.10
2022-10-24T00:54:42.183Z,21.10
2022-10-24T00:54:57.928Z,21.10
2022-10-24T00:55:10.173Z,21.10
2022-10-24T00:55:22.426Z,21.10
2022-10-24T00:55:37.081Z,21.10
2022-10-24T00:55:50.677Z,21.10
2022-10-24T00:56:02.938Z,21.10
2022-10-24T00:56:15.056Z,21.10
2022-10-24T00:56:29.343Z,21.10
2022-10-24T00:56:58.202Z,21.10
2022-10-24T00:57:17.770Z,21.10
2022-10-24T00:57:54.344Z,21.10
2022-10-24T00:58:06.316Z,21.10
2022-10-24T00:58:24.158Z,21.00
2022-10-24T00:58:36.307Z,21.00
2022-10-24T00:58:48.109Z,21.00
2022-10-24T00:59:00.041Z,21.00
2022-10-24T00:59:12.327Z,21.00
2022-10-24T00:59:30.743Z,21.00
2022-10-24T00:59:43.353Z,21.00
2022-10-24T01:00:01.364Z,21.00
2022-10-24T01:00:24.806Z,21.00
2022-10-24T01:00:36.680Z,21.00
2022-10-24T01:00:48.485Z,21.00
2022-10-24T01:01:00.809Z,21.00
2022-10-24T01:01:13.034Z,21.00
2022-10-24T01:01:25.806Z,21.00
2022-10-24T01:01:38.146Z,21.10
2022-10-24T01:01:50.035Z,21.00
2022-10-24T01:02:01.810Z,21.00
2022-10-24T01:02:26.867Z,21.00
2022-10-24T01:02:39.770Z,21.00
2022-10-24T01:02:51.900Z,21.00
2022-10-24T01:03:04.190Z,21.00
2022-10-24T01:03:25.575Z,21.00
2022-10-24T01:03:48.912Z,21.00
2022-10-24T01:04:02.252Z,21.00
2022-10-24T01:04:14.178Z,21.00
2022-10-24T01:04:25.954Z,21.00
2022-10-24T01:04:41.947Z,21.00
2022-10-24T01:04:55.351Z,21.00
2022-10-24T01:05:07.571Z,21.00
2022-10-24T01:05:23.966Z,21.00
2022-10-24T01:05:40.747Z,21.10
2022-10-24T01:06:12.519Z,21.00
2022-10-24T01:07:21.708Z,21.00
2022-10-24T01:07:49.453Z,21.00
2022-10-24T01:08:12.323Z,21.00
2022-10-24T01:08:35.851Z,21.00
2022-10-24T01:10:38.636Z,21.00
2022-10-24T01:11:09.169Z,21.00
2022-10-24T01:12:29.439Z,21.00
2022-10-24T01:13:05.838Z,21.00
2022-10-24T01:14:16.147Z,21.00
2022-10-24T01:14:51.799Z,21.00
2022-10-24T01:15:36.061Z,21.00
2022-10-24T01:16:56.428Z,20.90
2022-10-24T01:17:33.565Z,21.00
2022-10-24T01:17:57.379Z,20.90
2022-10-24T01:18:20.800Z,20.90
2022-10-24T01:18:57.083Z,21.00
2022-10-24T01:20:56.928Z,21.00
2022-10-24T01:24:49.404Z,21.00
2022-10-24T01:25:29.783Z,20.90
2022-10-24T01:26:32.062Z,20.90
2022-10-24T01:27:32.204Z,20.90
2022-10-24T01:28:16.961Z,20.90
2022-10-24T01:29:02.800Z,20.90
2022-10-24T01:29:24.872Z,20.90
2022-10-24T01:30:03.062Z,20.90
2022-10-24T01:31:03.114Z,20.90
2022-10-24T01:32:58.953Z,20.90
2022-10-24T01:33:28.194Z,20.90
2022-10-24T01:33:45.654Z,20.90
2022-10-24T01:34:37.316Z,20.90
2022-10-24T01:35:15.263Z,20.90
2022-10-24T01:43:19.129Z,20.80
2022-10-24T01:43:37.348Z,20.80
2022-10-24T01:44:13.187Z,20.80
2022-10-24T01:44:28.291Z,20.80
2022-10-24T01:44:41.667Z,20.80
2022-10-24T01:44:55.420Z,20.80
2022-10-24T01:45:07.927Z,20.90
2022-10-24T01:45:28.121Z,20.80
2022-10-24T01:55:50.064Z,20.60
2022-10-24T01:56:03.479Z,20.70
2022-10-24T01:56:16.090Z,20.60
2022-10-24T01:56:29.640Z,20.60
2022-10-24T01:56:44.813Z,20.70
2022-10-24T01:56:58.960Z,20.70
2022-10-24T01:57:13.571Z,20.60
2022-10-24T01:57:31.119Z,20.70
2022-10-24T01:57:43.408Z,20.70
2022-10-24T01:57:55.533Z,20.70
2022-10-24T01:58:09.942Z,20.70
2022-10-24T01:58:23.159Z,20.70
2022-10-24T01:58:35.559Z,20.70
2022-10-24T01:58:49.683Z,20.70
2022-10-24T02:00:06.037Z,20.70
2022-10-24T02:00:21.120Z,20.70
2022-10-24T02:00:33.401Z,20.70
2022-10-24T02:00:47.107Z,20.70
2022-10-24T02:01:02.192Z,20.70
2022-10-24T02:01:16.858Z,20.60
2022-10-24T02:01:32.049Z,20.70
2022-10-24T02:01:44.875Z,20.70
2022-10-24T02:02:14.960Z,20.60
2022-10-24T02:02:32.723Z,20.70
2022-10-24T02:02:47.208Z,20.60
2022-10-24T02:03:02.380Z,20.60
2022-10-24T02:03:37.340Z,20.60
2022-10-24T02:03:53.319Z,20.60
2022-10-24T02:04:08.455Z,20.60
2022-10-24T02:04:21.112Z,20.60
2022-10-24T02:04:33.316Z,20.60
2022-10-24T02:04:52.994Z,20.60
2022-10-24T02:05:10.729Z,20.60
2022-10-24T02:05:27.405Z,20.60
2022-10-24T02:05:44.410Z,20.60
2022-10-24T02:06:01.072Z,20.60
2022-10-24T02:06:49.758Z,20.60
2022-10-24T02:07:02.688Z,20.60
2022-10-24T02:07:14.812Z,20.60
2022-10-24T02:07:30.766Z,20.60
2022-10-24T02:07:44.122Z,20.60
2022-10-24T02:08:03.416Z,20.60
2022-10-24T02:08:19.869Z,20.60
2022-10-24T02:08:34.608Z,20.60
2022-10-24T02:08:48.808Z,20.60
2022-10-24T02:09:19.505Z,20.60
2022-10-24T02:09:38.769Z,20.60
2022-10-24T02:09:53.835Z,20.60
2022-10-24T02:10:13.180Z,20.60
2022-10-24T02:10:51.279Z,20.60
2022-10-24T02:11:14.133Z,20.60
2022-10-24T02:11:30.604Z,20.60
2022-10-24T02:11:43.149Z,20.60
2022-10-24T02:11:55.972Z,20.60
2022-10-24T02:12:10.995Z,20.60
2022-10-24T02:12:23.840Z,20.60
2022-10-24T02:12:37.336Z,20.60
2022-10-24T02:12:53.581Z,20.60
2022-10-24T02:13:18.891Z,20.60
2022-10-24T02:13:49.557Z,20.60
2022-10-24T02:14:23.104Z,20.60
2022-10-24T02:14:37.440Z,20.60
2022-10-24T02:14:52.167Z,20.60
2022-10-24T02:15:07.746Z,20.60
2022-10-24T02:15:25.081Z,20.60
2022-10-24T02:15:43.150Z,20.60
2022-10-24T02:15:56.948Z,20.60
2022-10-24T02:16:52.851Z,20.60
2022-10-24T02:17:06.745Z,20.60
2022-10-24T02:17:42.012Z,20.60
2022-10-24T02:17:58.538Z,20.60
2022-10-24T02:18:14.661Z,20.60
2022-10-24T02:18:28.764Z,20.60
2022-10-24T02:18:44.409Z,20.60
2022-10-24T02:18:56.861Z,20.60
2022-10-24T02:19:10.890Z,20.60
2022-10-24T02:19:23.502Z,20.60
2022-10-24T02:19:37.116Z,20.60
2022-10-24T02:19:48.974Z,20.60
2022-10-24T02:20:01.487Z,20.60
2022-10-24T02:20:13.469Z,20.60
2022-10-24T02:20:35.149Z,20.60
2022-10-24T02:20:59.174Z,20.60
2022-10-24T02:21:38.495Z,20.60
2022-10-24T02:22:09.559Z,20.60
2022-10-24T02:22:42.345Z,20.60
2022-10-24T02:22:59.119Z,20.60
2022-10-24T02:23:17.381Z,20.60
2022-10-24T02:23:39.602Z,20.60
2022-10-24T02:24:17.639Z,20.60
2022-10-24T02:24:39.922Z,20.60
2022-10-24T02:25:04.854Z,20.60
2022-10-24T02:25:24.524Z,20.50
2022-10-24T02:25:38.553Z,20.50
2022-10-24T02:25:51.453Z,20.50
2022-10-24T02:26:04.590Z,20.50
2022-10-24T02:26:33.903Z,20.50
2022-10-24T02:27:01.976Z,20.50
2022-10-24T02:27:19.004Z,20.50
2022-10-24T02:28:16.452Z,20.50
2022-10-24T02:28:36.548Z,20.50
2022-10-24T02:28:48.709Z,20.50
2022-10-24T02:29:05.029Z,20.50
2022-10-24T02:29:25.136Z,20.50
2022-10-24T02:29:59.659Z,20.50
2022-10-24T02:30:14.152Z,20.50
2022-10-24T02:30:26.223Z,20.50
2022-10-24T02:30:45.270Z,20.50
2022-10-24T02:31:05.253Z,20.50
2022-10-24T02:31:24.846Z,20.50
2022-10-24T02:31:41.785Z,20.50
2022-10-24T02:31:55.410Z,20.50
2022-10-24T02:32:10.201Z,20.50
2022-10-24T02:32:28.179Z,20.50
2022-10-24T02:32:51.115Z,20.50
2022-10-24T02:33:06.462Z,20.50
2022-10-24T02:33:26.365Z,20.50
2022-10-24T02:33:41.292Z,20.50
2022-10-24T02:34:20.490Z,20.50
2022-10-24T02:34:32.746Z,20.50
2022-10-24T02:34:44.594Z,20.50
2022-10-24T02:34:56.381Z,20.50
2022-10-24T02:35:09.544Z,20.50
2022-10-24T02:35:27.462Z,20.50
2022-10-24T02:35:39.288Z,20.50
2022-10-24T02:35:52.700Z,20.50
2022-10-24T02:36:06.551Z,20.50
2022-10-24T02:36:21.836Z,20.50
2022-10-24T02:36:34.652Z,20.50
2022-10-24T02:36:49.069Z,20.50
2022-10-24T02:37:05.109Z,20.40
2022-10-24T02:37:19.361Z,20.50
2022-10-24T02:37:31.532Z,20.50
2022-10-24T02:37:49.293Z,20.40
2022-10-24T02:38:07.156Z,20.50
2022-10-24T02:38:32.081Z,20.40
2022-10-24T02:38:44.781Z,20.40
2022-10-24T02:38:57.257Z,20.40
2022-10-24T02:39:09.195Z,20.40
2022-10-24T02:39:20.872Z,20.40
2022-10-24T02:39:33.365Z,20.40
2022-10-24T02:39:47.006Z,20.40
2022-10-24T02:39:58.947Z,20.40
2022-10-24T02:40:14.084Z,20.40
2022-10-24T02:40:25.892Z,20.40
2022-10-24T02:40:37.969Z,20.40
2022-10-24T02:40:49.886Z,20.40
2022-10-24T02:41:03.446Z,20.40
2022-10-24T02:41:20.448Z,20.40
2022-10-24T02:41:33.775Z,20.40
2022-10-24T02:41:45.661Z,20.40
2022-10-24T02:41:58.281Z,20.40
2022-10-24T02:42:13.238Z,20.40
2022-10-24T02:43:12.289Z,20.40
2022-10-24T02:43:24.647Z,20.40
2022-10-24T02:43:36.956Z,20.40
2022-10-24T02:43:49.733Z,20.40
2022-10-24T02:44:02.835Z,20.40
2022-10-24T02:44:19.563Z,20.40
2022-10-24T02:44:34.098Z,20.40
2022-10-24T02:44:48.662Z,20.40
2022-10-24T02:45:03.945Z,20.40
2022-10-24T02:45:33.712Z,20.40
2022-10-24T02:45:45.804Z,20.40
2022-10-24T02:45:58.026Z,20.40
2022-10-24T02:46:11.473Z,20.40
2022-10-24T02:46:23.880Z,20.40
2022-10-24T02:46:35.739Z,20.40
2022-10-24T02:46:55.233Z,20.40
2022-10-24T02:47:07.089Z,20.40
2022-10-24T02:47:19.565Z,20.40
2022-10-24T02:47:31.340Z,20.40
2022-10-24T02:47:45.437Z,20.40
2022-10-24T02:48:00.337Z,20.40
2022-10-24T02:48:14.276Z,20.40
2022-10-24T02:48:31.090Z,20.40
2022-10-24T02:48:47.608Z,20.40
2022-10-24T02:49:00.984Z,20.40
2022-10-24T02:49:13.175Z,20.40
2022-10-24T02:49:25.072Z,20.40
2022-10-24T02:49:37.045Z,20.40
2022-10-24T02:50:14.830Z,20.40
2022-10-24T02:50:26.581Z,20.40
2022-10-24T02:50:39.582Z,20.50
2022-10-24T02:51:03.895Z,20.50
2022-10-24T02:51:19.358Z,20.50
2022-10-24T02:51:34.579Z,20.50
2022-10-24T02:51:46.963Z,20.50
2022-10-24T02:51:59.577Z,20.50
2022-10-24T02:52:12.042Z,20.50
2022-10-24T02:52:26.147Z,20.50
2022-10-24T02:52:41.398Z,20.50
2022-10-24T02:53:00.174Z,20.50
2022-10-24T02:53:15.156Z,20.50
2022-10-24T02:53:27.375Z,20.40
2022-10-24T02:53:39.360Z,20.50
2022-10-24T02:53:51.625Z,20.50
2022-10-24T02:54:03.796Z,20.50
2022-10-24T02:54:15.622Z,20.50
2022-10-24T02:54:27.477Z,20.50
2022-10-24T02:54:39.233Z,20.40
2022-10-24T02:54:51.206Z,20.50
2022-10-24T02:55:03.167Z,20.40
2022-10-24T02:55:17.359Z,20.50
2022-10-24T02:55:29.170Z,20.40
2022-10-24T02:55:41.059Z,20.40
2022-10-24T02:55:53.412Z,20.40
2022-10-24T02:56:05.620Z,20.40
2022-10-24T02:56:17.686Z,20.40
2022-10-24T02:56:29.489Z,20.40
2022-10-24T02:56:44.522Z,20.40
2022-10-24T02:56:58.716Z,20.40
2022-10-24T02:57:10.482Z,20.40
2022-10-24T02:57:23.771Z,20.40
2022-10-24T02:57:36.496Z,20.40
2022-10-24T02:57:48.627Z,20.40
2022-10-24T02:58:01.833Z,20.40
2022-10-24T02:58:14.648Z,20.40
2022-10-24T02:58:26.545Z,20.40
2022-10-24T02:58:38.551Z,20.40
2022-10-24T02:58:54.561Z,20.40
2022-10-24T02:59:06.709Z,20.40
2022-10-24T02:59:18.597Z,20.40
2022-10-24T02:59:31.178Z,20.40
2022-10-24T02:59:43.279Z,20.40
2022-10-24T02:59:55.255Z,20.40
2022-10-24T03:00:07.917Z,20.40
2022-10-24T03:00:21.122Z,20.40
2022-10-24T03:00:39.211Z,20.40
2022-10-24T03:00:51.085Z,20.40
2022-10-24T03:01:03.571Z,20.40
2022-10-24T03:01:45.354Z,20.40
2022-10-24T03:01:57.947Z,20.40
2022-10-24T03:02:17.313Z,20.40
2022-10-24T03:02:29.147Z,20.40
2022-10-24T03:02:48.824Z,20.40
2022-10-24T03:03:01.420Z,20.40
2022-10-24T03:03:51.156Z,20.40
2022-10-24T03:04:03.019Z,20.40
2022-10-24T03:04:15.156Z,20.40
2022-10-24T03:04:27.615Z,20.40
2022-10-24T03:04:39.822Z,20.40
2022-10-24T03:04:52.412Z,20.40
2022-10-24T03:05:04.581Z,20.40
2022-10-24T03:05:16.457Z,20.40
2022-10-24T03:05:28.321Z,20.40
2022-10-24T03:05:40.163Z,20.40
2022-10-24T03:05:52.247Z,20.40
2022-10-24T03:06:12.027Z,20.40
2022-10-24T03:06:25.757Z,20.40
2022-10-24T03:06:37.906Z,20.40
2022-10-24T03:06:50.286Z,20.40
2022-10-24T03:07:03.735Z,20.40
2022-10-24T03:07:15.997Z,20.40
2022-10-24T03:07:42.170Z,20.40
2022-10-24T03:07:54.011Z,20.40
2022-10-24T03:08:08.115Z,20.40
2022-10-24T03:08:20.231Z,20.40
2022-10-24T03:08:32.279Z,20.40
2022-10-24T03:08:44.405Z,20.40
2022-10-24T03:08:56.432Z,20.40
2022-10-24T03:09:08.919Z,20.40
2022-10-24T03:09:23.935Z,20.40
2022-10-24T03:09:35.868Z,20.40
2022-10-24T03:09:51.660Z,20.40
2022-10-24T03:10:03.845Z,20.40
2022-10-24T03:10:18.934Z,20.40
2022-10-24T03:10:31.098Z,20.40
2022-10-24T03:10:43.644Z,20.40
2022-10-24T03:10:58.525Z,20.40
2022-10-24T03:11:13.981Z,20.40
2022-10-24T03:11:26.357Z,20.40
2022-10-24T03:11:39.309Z,20.40
2022-10-24T03:11:51.631Z,20.40
2022-10-24T03:12:05.683Z,20.40
2022-10-24T03:12:19.958Z,20.40
2022-10-24T03:12:32.270Z,20.40
2022-10-24T03:12:47.504Z,20.40
2022-10-24T03:13:01.110Z,20.40
2022-10-24T03:13:14.164Z,20.40
2022-10-24T03:13:27.161Z,20.40
2022-10-24T03:13:41.944Z,20.40
2022-10-24T03:13:55.875Z,20.40
2022-10-24T03:14:07.839Z,20.50
2022-10-24T03:14:21.120Z,20.50
2022-10-24T03:14:33.127Z,20.40
2022-10-24T03:14:45.390Z,20.50
2022-10-24T03:15:00.945Z,20.40
2022-10-24T03:15:13.176Z,20.40
2022-10-24T03:15:25.345Z,20.40
2022-10-24T03:15:37.760Z,20.50
2022-10-24T03:15:58.189Z,20.40
2022-10-24T03:16:13.919Z,20.50
2022-10-24T03:16:29.112Z,20.50
2022-10-24T03:17:01.714Z,20.50
2022-10-24T03:17:14.096Z,20.50
2022-10-24T03:17:29.671Z,20.50
2022-10-24T03:17:43.719Z,20.50
2022-10-24T03:18:18.358Z,20.50
2022-10-24T03:18:30.743Z,20.40
2022-10-24T03:18:44.238Z,20.50
2022-10-24T03:18:57.385Z,20.50
2022-10-24T03:19:09.302Z,20.50
2022-10-24T03:19:21.990Z,20.40
2022-10-24T03:19:34.354Z,20.50
2022-10-24T03:19:46.901Z,20.50
2022-10-24T03:20:01.028Z,20.50
2022-10-24T03:20:13.774Z,20.50
2022-10-24T03:20:29.037Z,20.50
2022-10-24T03:20:42.698Z,20.50
2022-10-24T03:20:54.850Z,20.50
2022-10-24T03:21:06.986Z,20.50
2022-10-24T03:21:19.966Z,20.40
2022-10-24T03:21:33.702Z,20.40
2022-10-24T03:21:48.239Z,20.50
2022-10-24T03:22:00.929Z,20.50
2022-10-24T03:22:13.083Z,20.50
2022-10-24T03:22:31.080Z,20.50
2022-10-24T03:22:43.863Z,20.50
2022-10-24T03:23:05.902Z,20.50
2022-10-24T03:23:19.462Z,20.50
2022-10-24T03:23:32.049Z,20.50
2022-10-24T03:23:46.441Z,20.50
2022-10-24T03:23:58.561Z,20.50
2022-10-24T03:24:11.302Z,20.50
2022-10-24T03:24:37.060Z,20.50
2022-10-24T03:25:02.469Z,20.50
2022-10-24T03:25:17.368Z,20.50
2022-10-24T03:25:46.462Z,20.50
2022-10-24T03:26:03.695Z,20.60
2022-10-24T03:26:16.003Z,20.60
2022-10-24T03:26:31.710Z,20.60
2022-10-24T03:26:54.243Z,20.60
2022-10-24T03:27:06.720Z,20.60
2022-10-24T03:27:19.812Z,20.60
2022-10-24T03:27:34.054Z,20.60
2022-10-24T03:27:46.305Z,20.60
2022-10-24T03:28:00.961Z,20.60
2022-10-24T03:28:16.051Z,20.60
2022-10-24T03:28:27.792Z,20.60
2022-10-24T03:28:40.192Z,20.60
2022-10-24T03:28:52.950Z,20.60
2022-10-24T03:29:05.651Z,20.60
2022-10-24T03:29:18.972Z,20.60
2022-10-24T03:29:31.018Z,20.60
2022-10-24T03:29:43.103Z,20.60
2022-10-24T03:29:55.273Z,20.60
2022-10-24T03:30:09.373Z,20.70
2022-10-24T03:30:21.784Z,20.70
2022-10-24T03:30:34.018Z,20.70
2022-10-24T03:30:51.849Z,20.70
2022-10-24T03:31:03.885Z,20.70
2022-10-24T03:31:15.947Z,20.70
2022-10-24T03:31:28.022Z,20.70
2022-10-24T03:31:41.496Z,20.70
2022-10-24T03:31:53.363Z,20.70
2022-10-24T03:32:07.604Z,20.70
2022-10-24T03:32:19.520Z,20.70
2022-10-24T03:32:38.130Z,20.70
2022-10-24T03:32:51.306Z,20.70
2022-10-24T03:33:03.089Z,20.70
2022-10-24T03:33:15.650Z,20.70
2022-10-24T03:33:30.297Z,20.70
2022-10-24T03:33:42.073Z,20.70
2022-10-24T03:33:54.105Z,20.70
2022-10-24T03:34:06.049Z,20.70
2022-10-24T03:34:18.153Z,20.70
2022-10-24T03:34:30.199Z,20.70
2022-10-24T03:34:47.375Z,20.70
2022-10-24T03:35:04.755Z,20.70
2022-10-24T03:35:16.814Z,20.80
2022-10-24T03:35:28.982Z,20.80
2022-10-24T03:35:40.967Z,20.80
2022-10-24T03:35:53.865Z,20.80
2022-10-24T03:36:05.958Z,20.80
2022-10-24T03:36:25.093Z,20.80
2022-10-24T03:36:37.444Z,20.80
2022-10-24T03:36:49.182Z,20.80
2022-10-24T03:37:00.950Z,20.80
2022-10-24T03:37:12.730Z,20.80
2022-10-24T03:37:24.601Z,20.80
2022-10-24T03:37:37.658Z,20.80
2022-10-24T03:37:50.791Z,20.80
2022-10-24T03:38:02.663Z,20.80
2022-10-24T03:38:15.036Z,20.80
2022-10-24T03:38:27.135Z,20.70
2022-10-24T03:38:39.157Z,20.80
2022-10-24T03:38:51.117Z,20.80
2022-10-24T03:39:03.690Z,20.80
2022-10-24T03:39:15.855Z,20.70
2022-10-24T03:39:28.041Z,20.80
2022-10-24T03:39:39.899Z,20.80
2022-10-24T03:39:51.735Z,20.80
2022-10-24T03:40:04.316Z,20.70
2022-10-24T03:40:16.685Z,20.70
2022-10-24T03:40:28.493Z,20.70
2022-10-24T03:40:40.825Z,20.70
2022-10-24T03:40:52.740Z,20.70
2022-10-24T03:41:07.605Z,20.70
2022-10-24T03:41:21.561Z,20.70
2022-10-24T03:41:33.517Z,20.70
2022-10-24T03:41:45.260Z,20.70
2022-10-24T03:41:57.142Z,20.70
2022-10-24T03:42:15.836Z,20.70
2022-10-24T03:42:28.209Z,20.70
2022-10-24T03:42:40.414Z,20.70
2022-10-24T03:42:52.839Z,20.70
2022-10-24T03:43:35.012Z,20.70
2022-10-24T03:43:47.067Z,20.70
2022-10-24T03:44:01.456Z,20.70
2022-10-24T03:44:17.913Z,20.70
2022-10-24T03:44:30.968Z,20.70
2022-10-24T03:44:43.548Z,20.70
2022-10-24T03:44:56.156Z,20.70
2022-10-24T03:45:10.914Z,20.70
2022-10-24T03:45:23.438Z,20.70
2022-10-24T03:45:35.396Z,20.70
2022-10-24T03:45:48.057Z,20.70
2022-10-24T03:46:02.661Z,20.70
2022-10-24T03:46:14.691Z,20.70
2022-10-24T03:46:38.681Z,20.70
2022-10-24T03:46:50.768Z,20.70
2022-10-24T03:47:04.678Z,20.70
2022-10-24T03:47:16.719Z,20.70
2022-10-24T03:47:29.379Z,20.70
2022-10-24T03:47:41.170Z,20.70
2022-10-24T03:47:53.591Z,20.70
2022-10-24T03:48:06.987Z,20.70
2022-10-24T03:48:19.406Z,20.70
2022-10-24T03:48:31.478Z,20.70
2022-10-24T03:48:43.529Z,20.70
2022-10-24T03:48:55.451Z,20.70
2022-10-24T03:49:07.997Z,20.70
2022-10-24T03:49:20.808Z,20.70
2022-10-24T03:49:33.051Z,20.70
2022-10-24T03:49:46.314Z,20.70
2022-10-24T03:49:58.730Z,20.70
2022-10-24T03:50:11.173Z,20.70
2022-10-24T03:50:24.213Z,20.70
2022-10-24T03:50:37.239Z,20.70
2022-10-24T03:50:50.527Z,20.70
2022-10-24T03:51:02.401Z,20.70
2022-10-24T03:51:16.168Z,20.70
2022-10-24T03:51:28.096Z,20.70
2022-10-24T03:51:40.479Z,20.70
2022-10-24T03:51:54.609Z,20.70
2022-10-24T03:52:06.731Z,20.70
2022-10-24T03:52:20.229Z,20.70
2022-10-24T03:52:37.447Z,20.70
2022-10-24T03:52:50.164Z,20.70
2022-10-24T03:53:02.431Z,20.70
2022-10-24T03:53:14.519Z,20.70
2022-10-24T03:53:26.972Z,20.70
2022-10-24T03:53:39.776Z,20.70
2022-10-24T03:53:56.813Z,20.70
2022-10-24T03:54:11.048Z,20.70
2022-10-24T03:54:29.264Z,20.60
2022-10-24T03:55:05.584Z,20.60
2022-10-24T03:55:19.583Z,20.70
2022-10-24T03:55:31.983Z,20.60